sensor_id;sensor_type;location;lat;lon;timestamp;pressure;altitude;pressure_sealevel;temperature;humidity
63700;BME280;49845;47.130;142.766;2023-04-24T00:02:02;100243.25;;;8.10;59.65
63700;BME280;49845;47.130;142.766;2023-04-24T00:04:35;100233.66;;;8.18;58.78
63700;BME280;49845;47.130;142.766;2023-04-24T00:07:10;100238.81;;;8.25;58.55
63700;BME280;49845;47.130;142.766;2023-04-24T00:09:41;100237.88;;;8.33;58.12
63700;BME280;49845;47.130;142.766;2023-04-24T00:12:12;100223.13;;;8.37;58.19
63700;BME280;49845;47.130;142.766;2023-04-24T00:14:42;100237.69;;;8.62;58.22
63700;BME280;49845;47.130;142.766;2023-04-24T00:17:13;100228.25;;;8.49;55.79
63700;BME280;49845;47.130;142.766;2023-04-24T00:19:43;100226.63;;;8.30;56.83
63700;BME280;49845;47.130;142.766;2023-04-24T00:22:15;100216.09;;;8.48;57.76
63700;BME280;49845;47.130;142.766;2023-04-24T00:24:46;100209.03;;;8.62;56.48
63700;BME280;49845;47.130;142.766;2023-04-24T00:27:16;100210.63;;;8.79;56.81
63700;BME280;49845;47.130;142.766;2023-04-24T00:29:47;100213.19;;;8.82;56.43
63700;BME280;49845;47.130;142.766;2023-04-24T00:32:18;100200.22;;;8.79;56.28
63700;BME280;49845;47.130;142.766;2023-04-24T00:34:49;100200.16;;;8.82;57.18
63700;BME280;49845;47.130;142.766;2023-04-24T00:37:21;100198.16;;;9.05;56.69
63700;BME280;49845;47.130;142.766;2023-04-24T00:39:52;100192.66;;;9.30;56.48
63700;BME280;49845;47.130;142.766;2023-04-24T00:42:23;100152.56;;;9.40;55.43
63700;BME280;49845;47.130;142.766;2023-04-24T00:44:53;100189.91;;;10.03;53.61
63700;BME280;49845;47.130;142.766;2023-04-24T00:47:24;100185.91;;;10.38;52.22
63700;BME280;49845;47.130;142.766;2023-04-24T00:49:55;100189.88;;;10.62;51.10
63700;BME280;49845;47.130;142.766;2023-04-24T00:52:30;100162.81;;;10.64;50.83
63700;BME280;49845;47.130;142.766;2023-04-24T00:55:01;100184.81;;;10.99;50.18
63700;BME280;49845;47.130;142.766;2023-04-24T00:57:31;100170.34;;;11.25;50.92
63700;BME280;49845;47.130;142.766;2023-04-24T01:00:02;100182.41;;;11.32;49.04
63700;BME280;49845;47.130;142.766;2023-04-24T01:02:34;100165.03;;;11.31;49.23
63700;BME280;49845;47.130;142.766;2023-04-24T01:05:05;100166.31;;;11.08;45.98
63700;BME280;49845;47.130;142.766;2023-04-24T01:07:38;100169.13;;;10.99;46.01
63700;BME280;49845;47.130;142.766;2023-04-24T01:10:09;100172.63;;;10.98;46.01
63700;BME280;49845;47.130;142.766;2023-04-24T01:12:40;100177.38;;;10.77;44.93
63700;BME280;49845;47.130;142.766;2023-04-24T01:15:11;100172.81;;;10.89;45.88
63700;BME280;49845;47.130;142.766;2023-04-24T01:17:41;100166.84;;;10.80;46.10
63700;BME280;49845;47.130;142.766;2023-04-24T01:20:12;100176.66;;;10.69;43.89
63700;BME280;49845;47.130;142.766;2023-04-24T01:22:44;100177.25;;;10.35;43.94
63700;BME280;49845;47.130;142.766;2023-04-24T01:25:15;100173.13;;;9.62;44.13
63700;BME280;49845;47.130;142.766;2023-04-24T01:27:45;100170.00;;;9.35;46.29
63700;BME280;49845;47.130;142.766;2023-04-24T01:30:16;100174.69;;;9.07;46.99
63700;BME280;49845;47.130;142.766;2023-04-24T01:32:47;100172.31;;;8.87;46.40
63700;BME280;49845;47.130;142.766;2023-04-24T01:35:18;100153.69;;;8.39;45.92
63700;BME280;49845;47.130;142.766;2023-04-24T01:37:50;100164.09;;;8.42;47.92
63700;BME280;49845;47.130;142.766;2023-04-24T01:40:21;100158.59;;;8.70;47.46
63700;BME280;49845;47.130;142.766;2023-04-24T01:42:52;100163.66;;;8.85;46.52
63700;BME280;49845;47.130;142.766;2023-04-24T01:45:23;100152.41;;;8.81;46.36
63700;BME280;49845;47.130;142.766;2023-04-24T01:47:53;100148.47;;;9.19;46.69
63700;BME280;49845;47.130;142.766;2023-04-24T01:50:24;100147.38;;;9.37;46.41
63700;BME280;49845;47.130;142.766;2023-04-24T01:52:56;100120.84;;;9.71;48.47
63700;BME280;49845;47.130;142.766;2023-04-24T01:55:27;100129.66;;;9.61;45.91
63700;BME280;49845;47.130;142.766;2023-04-24T01:58:00;100119.22;;;9.61;45.93
63700;BME280;49845;47.130;142.766;2023-04-24T02:00:31;100130.53;;;10.17;45.15
63700;BME280;49845;47.130;142.766;2023-04-24T02:03:02;100123.72;;;10.60;45.44
63700;BME280;49845;47.130;142.766;2023-04-24T02:05:32;100127.72;;;10.77;45.85
63700;BME280;49845;47.130;142.766;2023-04-24T02:08:05;100129.91;;;10.54;44.11
63700;BME280;49845;47.130;142.766;2023-04-24T02:10:35;100129.03;;;10.01;43.31
63700;BME280;49845;47.130;142.766;2023-04-24T02:13:05;100131.97;;;9.81;45.58
63700;BME280;49845;47.130;142.766;2023-04-24T02:15:36;100132.75;;;9.87;44.52
63700;BME280;49845;47.130;142.766;2023-04-24T02:18:07;100132.09;;;10.27;45.98
63700;BME280;49845;47.130;142.766;2023-04-24T02:20:37;100121.31;;;10.49;44.61
63700;BME280;49845;47.130;142.766;2023-04-24T02:23:09;100118.00;;;10.38;41.22
63700;BME280;49845;47.130;142.766;2023-04-24T02:25:40;100123.50;;;9.66;43.64
63700;BME280;49845;47.130;142.766;2023-04-24T02:28:10;100120.91;;;9.65;44.80
63700;BME280;49845;47.130;142.766;2023-04-24T02:30:41;100124.97;;;9.83;45.02
63700;BME280;49845;47.130;142.766;2023-04-24T02:33:11;100115.06;;;10.05;44.82
63700;BME280;49845;47.130;142.766;2023-04-24T02:35:42;100118.59;;;10.01;43.52
63700;BME280;49845;47.130;142.766;2023-04-24T02:38:14;100123.41;;;10.25;44.11
63700;BME280;49845;47.130;142.766;2023-04-24T02:40:45;100111.19;;;10.27;42.79
63700;BME280;49845;47.130;142.766;2023-04-24T02:43:17;100107.09;;;10.14;42.18
63700;BME280;49845;47.130;142.766;2023-04-24T02:45:48;100112.63;;;9.94;41.05
63700;BME280;49845;47.130;142.766;2023-04-24T02:48:19;100110.16;;;9.86;41.40
63700;BME280;49845;47.130;142.766;2023-04-24T02:50:50;100108.53;;;9.79;42.82
63700;BME280;49845;47.130;142.766;2023-04-24T02:53:23;100109.97;;;9.99;43.39
63700;BME280;49845;47.130;142.766;2023-04-24T02:55:53;100100.63;;;10.36;43.22
63700;BME280;49845;47.130;142.766;2023-04-24T02:58:27;100102.53;;;10.28;41.79
63700;BME280;49845;47.130;142.766;2023-04-24T03:00:58;100069.78;;;10.06;42.09
63700;BME280;49845;47.130;142.766;2023-04-24T03:03:29;100097.38;;;10.22;41.14
63700;BME280;49845;47.130;142.766;2023-04-24T03:06:00;100092.56;;;9.98;41.30
63700;BME280;49845;47.130;142.766;2023-04-24T03:08:33;100090.91;;;9.93;42.48
63700;BME280;49845;47.130;142.766;2023-04-24T03:11:04;100093.72;;;10.32;42.88
63700;BME280;49845;47.130;142.766;2023-04-24T03:13:35;100070.69;;;10.53;39.41
63700;BME280;49845;47.130;142.766;2023-04-24T03:16:06;100091.81;;;10.41;43.07
63700;BME280;49845;47.130;142.766;2023-04-24T03:18:37;100080.78;;;10.23;42.40
63700;BME280;49845;47.130;142.766;2023-04-24T03:21:07;100087.19;;;10.07;40.61
63700;BME280;49845;47.130;142.766;2023-04-24T03:23:40;100101.44;;;9.87;41.07
63700;BME280;49845;47.130;142.766;2023-04-24T03:26:11;100083.88;;;9.41;40.97
63700;BME280;49845;47.130;142.766;2023-04-24T03:28:42;100083.56;;;8.99;41.29
63700;BME280;49845;47.130;142.766;2023-04-24T03:31:13;100088.53;;;9.18;42.16
63700;BME280;49845;47.130;142.766;2023-04-24T03:33:43;100080.31;;;9.47;41.99
63700;BME280;49845;47.130;142.766;2023-04-24T03:36:14;100087.84;;;9.67;42.78
63700;BME280;49845;47.130;142.766;2023-04-24T03:38:46;100090.19;;;9.82;40.81
63700;BME280;49845;47.130;142.766;2023-04-24T03:41:16;100078.63;;;9.99;42.03
63700;BME280;49845;47.130;142.766;2023-04-24T03:43:47;100088.75;;;10.17;42.10
63700;BME280;49845;47.130;142.766;2023-04-24T03:46:17;100081.34;;;10.44;41.78
63700;BME280;49845;47.130;142.766;2023-04-24T03:48:48;100073.19;;;10.11;39.94
63700;BME280;49845;47.130;142.766;2023-04-24T03:51:19;100086.09;;;9.66;40.50
63700;BME280;49845;47.130;142.766;2023-04-24T03:53:54;100072.81;;;9.24;40.57
63700;BME280;49845;47.130;142.766;2023-04-24T03:56:27;100086.31;;;9.54;42.92
63700;BME280;49845;47.130;142.766;2023-04-24T03:58:58;100020.50;;;9.36;41.49
63700;BME280;49845;47.130;142.766;2023-04-24T04:01:35;100080.97;;;9.60;40.92
63700;BME280;49845;47.130;142.766;2023-04-24T04:04:34;100059.22;;;9.62;42.60
63700;BME280;49845;47.130;142.766;2023-04-24T04:07:18;100074.34;;;9.94;41.11
63700;BME280;49845;47.130;142.766;2023-04-24T04:09:50;100072.84;;;9.78;42.79
63700;BME280;49845;47.130;142.766;2023-04-24T04:12:21;100066.78;;;9.79;42.86
63700;BME280;49845;47.130;142.766;2023-04-24T04:14:51;100072.25;;;9.61;41.42
63700;BME280;49845;47.130;142.766;2023-04-24T04:17:22;100056.72;;;9.55;41.93
63700;BME280;49845;47.130;142.766;2023-04-24T04:19:52;100057.84;;;9.92;41.58
63700;BME280;49845;47.130;142.766;2023-04-24T04:22:23;100073.50;;;9.92;40.75
63700;BME280;49845;47.130;142.766;2023-04-24T04:24:55;100051.75;;;9.93;39.37
63700;BME280;49845;47.130;142.766;2023-04-24T04:27:26;100052.81;;;9.82;40.96
63700;BME280;49845;47.130;142.766;2023-04-24T04:29:57;100059.31;;;10.09;40.97
63700;BME280;49845;47.130;142.766;2023-04-24T04:32:29;100050.16;;;10.34;40.99
63700;BME280;49845;47.130;142.766;2023-04-24T04:35:01;100051.13;;;10.27;39.75
63700;BME280;49845;47.130;142.766;2023-04-24T04:37:32;100055.94;;;10.02;39.33
63700;BME280;49845;47.130;142.766;2023-04-24T04:40:06;100046.91;;;10.20;39.41
63700;BME280;49845;47.130;142.766;2023-04-24T04:42:39;100032.66;;;10.40;37.95
63700;BME280;49845;47.130;142.766;2023-04-24T04:45:11;100041.63;;;10.23;38.68
63700;BME280;49845;47.130;142.766;2023-04-24T04:47:45;100038.97;;;10.26;38.85
63700;BME280;49845;47.130;142.766;2023-04-24T04:50:15;100039.97;;;10.19;40.69
63700;BME280;49845;47.130;142.766;2023-04-24T04:52:46;100036.53;;;10.64;39.67
63700;BME280;49845;47.130;142.766;2023-04-24T04:55:19;100026.19;;;10.59;38.46
63700;BME280;49845;47.130;142.766;2023-04-24T04:57:49;100033.97;;;10.61;39.25
63700;BME280;49845;47.130;142.766;2023-04-24T05:00:20;100028.47;;;10.74;38.54
63700;BME280;49845;47.130;142.766;2023-04-24T05:02:53;100028.72;;;10.62;38.35
63700;BME280;49845;47.130;142.766;2023-04-24T05:05:39;100019.97;;;10.63;38.70
63700;BME280;49845;47.130;142.766;2023-04-24T05:08:12;100027.03;;;10.61;36.96
63700;BME280;49845;47.130;142.766;2023-04-24T05:10:55;100022.59;;;10.63;38.89
63700;BME280;49845;47.130;142.766;2023-04-24T05:13:26;100007.66;;;10.71;38.63
63700;BME280;49845;47.130;142.766;2023-04-24T05:16:07;99938.56;;;10.43;37.42
63700;BME280;49845;47.130;142.766;2023-04-24T05:18:40;99997.03;;;10.77;38.04
63700;BME280;49845;47.130;142.766;2023-04-24T05:21:12;100012.88;;;10.71;38.61
63700;BME280;49845;47.130;142.766;2023-04-24T05:23:43;100002.34;;;10.74;37.62
63700;BME280;49845;47.130;142.766;2023-04-24T05:26:15;100006.72;;;10.72;38.08
63700;BME280;49845;47.130;142.766;2023-04-24T05:28:46;100011.28;;;10.64;37.54
63700;BME280;49845;47.130;142.766;2023-04-24T05:31:17;100002.34;;;10.74;38.36
63700;BME280;49845;47.130;142.766;2023-04-24T05:33:47;99911.06;;;10.23;37.71
63700;BME280;49845;47.130;142.766;2023-04-24T05:36:18;99995.78;;;10.55;38.09
63700;BME280;49845;47.130;142.766;2023-04-24T05:38:49;100004.69;;;10.45;36.79
63700;BME280;49845;47.130;142.766;2023-04-24T05:41:21;100003.03;;;10.41;37.96
63700;BME280;49845;47.130;142.766;2023-04-24T05:43:52;99950.84;;;10.38;38.52
63700;BME280;49845;47.130;142.766;2023-04-24T05:46:23;99998.63;;;10.85;38.05
63700;BME280;49845;47.130;142.766;2023-04-24T05:48:53;99991.69;;;10.84;37.39
63700;BME280;49845;47.130;142.766;2023-04-24T05:51:24;99999.72;;;10.76;36.10
63700;BME280;49845;47.130;142.766;2023-04-24T05:53:55;100006.72;;;10.72;37.64
63700;BME280;49845;47.130;142.766;2023-04-24T05:56:28;100010.81;;;10.86;37.23
63700;BME280;49845;47.130;142.766;2023-04-24T05:58:59;100002.00;;;10.49;35.36
63700;BME280;49845;47.130;142.766;2023-04-24T06:01:29;99991.97;;;10.28;36.04
63700;BME280;49845;47.130;142.766;2023-04-24T06:04:01;100003.50;;;10.16;36.81
63700;BME280;49845;47.130;142.766;2023-04-24T06:06:32;100005.63;;;10.42;37.49
63700;BME280;49845;47.130;142.766;2023-04-24T06:09:03;99994.63;;;10.68;37.10
63700;BME280;49845;47.130;142.766;2023-04-24T06:11:35;99998.53;;;10.91;37.30
63700;BME280;49845;47.130;142.766;2023-04-24T06:14:06;99999.03;;;11.07;38.00
63700;BME280;49845;47.130;142.766;2023-04-24T06:16:38;99999.97;;;11.04;36.61
63700;BME280;49845;47.130;142.766;2023-04-24T06:19:09;99967.91;;;10.96;37.56
63700;BME280;49845;47.130;142.766;2023-04-24T06:21:39;100002.75;;;10.95;35.80
63700;BME280;49845;47.130;142.766;2023-04-24T06:24:13;100001.22;;;10.86;37.73
63700;BME280;49845;47.130;142.766;2023-04-24T06:26:45;100007.50;;;10.77;37.00
63700;BME280;49845;47.130;142.766;2023-04-24T06:29:16;100004.31;;;10.63;36.73
63700;BME280;49845;47.130;142.766;2023-04-24T06:31:48;100008.97;;;10.49;36.53
63700;BME280;49845;47.130;142.766;2023-04-24T06:34:18;100009.06;;;10.44;37.28
63700;BME280;49845;47.130;142.766;2023-04-24T06:36:49;99989.09;;;10.42;37.75
63700;BME280;49845;47.130;142.766;2023-04-24T06:39:19;100008.38;;;10.34;37.06
63700;BME280;49845;47.130;142.766;2023-04-24T06:41:51;100011.97;;;10.27;37.42
63700;BME280;49845;47.130;142.766;2023-04-24T06:44:22;100007.03;;;10.12;36.77
63700;BME280;49845;47.130;142.766;2023-04-24T06:46:53;100012.63;;;9.90;36.91
63700;BME280;49845;47.130;142.766;2023-04-24T06:49:24;100018.06;;;9.78;37.22
63700;BME280;49845;47.130;142.766;2023-04-24T06:51:54;100018.19;;;9.72;37.32
63700;BME280;49845;47.130;142.766;2023-04-24T06:54:26;100006.38;;;9.49;37.20
63700;BME280;49845;47.130;142.766;2023-04-24T06:56:58;100011.66;;;9.43;37.60
63700;BME280;49845;47.130;142.766;2023-04-24T06:59:29;100015.19;;;9.42;38.99
63700;BME280;49845;47.130;142.766;2023-04-24T07:02:00;100017.84;;;9.38;39.21
63700;BME280;49845;47.130;142.766;2023-04-24T07:04:30;100017.91;;;9.36;39.34
63700;BME280;49845;47.130;142.766;2023-04-24T07:07:01;100017.78;;;9.42;39.40
63700;BME280;49845;47.130;142.766;2023-04-24T07:09:33;100020.25;;;9.52;38.96
63700;BME280;49845;47.130;142.766;2023-04-24T07:12:08;100023.72;;;9.54;39.23
63700;BME280;49845;47.130;142.766;2023-04-24T07:14:39;100025.38;;;9.58;39.47
63700;BME280;49845;47.130;142.766;2023-04-24T07:17:09;100018.50;;;9.54;39.49
63700;BME280;49845;47.130;142.766;2023-04-24T07:19:41;100015.19;;;9.42;39.24
63700;BME280;49845;47.130;142.766;2023-04-24T07:22:12;100029.13;;;9.41;39.04
63700;BME280;49845;47.130;142.766;2023-04-24T07:24:45;100029.19;;;9.35;38.99
63700;BME280;49845;47.130;142.766;2023-04-24T07:27:17;100022.34;;;9.28;38.87
63700;BME280;49845;47.130;142.766;2023-04-24T07:29:47;100016.38;;;9.21;39.69
63700;BME280;49845;47.130;142.766;2023-04-24T07:32:18;100012.13;;;9.13;39.77
63700;BME280;49845;47.130;142.766;2023-04-24T07:34:48;100018.25;;;9.12;39.75
63700;BME280;49845;47.130;142.766;2023-04-24T07:37:19;99976.16;;;8.79;39.59
63700;BME280;49845;47.130;142.766;2023-04-24T07:39:50;100024.59;;;8.92;39.25
63700;BME280;49845;47.130;142.766;2023-04-24T07:42:27;100024.66;;;8.86;39.90
63700;BME280;49845;47.130;142.766;2023-04-24T07:44:59;100027.38;;;8.78;39.67
63700;BME280;49845;47.130;142.766;2023-04-24T07:47:31;100033.47;;;8.79;39.82
63700;BME280;49845;47.130;142.766;2023-04-24T07:50:03;100031.78;;;8.73;40.27
63700;BME280;49845;47.130;142.766;2023-04-24T07:52:35;100018.84;;;8.67;40.29
63700;BME280;49845;47.130;142.766;2023-04-24T07:55:07;100024.88;;;8.71;40.54
63700;BME280;49845;47.130;142.766;2023-04-24T07:57:40;100022.28;;;8.69;40.76
63700;BME280;49845;47.130;142.766;2023-04-24T08:00:13;100018.84;;;8.67;40.77
63700;BME280;49845;47.130;142.766;2023-04-24T08:02:44;100019.75;;;8.64;40.97
63700;BME280;49845;47.130;142.766;2023-04-24T08:05:16;100004.22;;;8.55;41.22
63700;BME280;49845;47.130;142.766;2023-04-24T08:07:49;100018.94;;;8.58;41.86
63700;BME280;49845;47.130;142.766;2023-04-24T08:10:21;100033.72;;;8.57;41.92
63700;BME280;49845;47.130;142.766;2023-04-24T08:12:55;100019.13;;;8.44;41.39
63700;BME280;49845;47.130;142.766;2023-04-24T08:15:28;100020.91;;;8.37;41.96
63700;BME280;49845;47.130;142.766;2023-04-24T08:17:59;100028.78;;;8.30;41.85
63700;BME280;49845;47.130;142.766;2023-04-24T08:20:32;100029.66;;;8.32;42.75
63700;BME280;49845;47.130;142.766;2023-04-24T08:23:04;100026.09;;;8.39;43.90
63700;BME280;49845;47.130;142.766;2023-04-24T08:25:36;100026.94;;;8.44;43.93
63700;BME280;49845;47.130;142.766;2023-04-24T08:28:09;100032.16;;;8.44;43.79
63700;BME280;49845;47.130;142.766;2023-04-24T08:30:44;100027.84;;;8.40;43.72
63700;BME280;49845;47.130;142.766;2023-04-24T08:33:16;100026.22;;;8.27;44.08
63700;BME280;49845;47.130;142.766;2023-04-24T08:35:47;100034.22;;;8.08;44.60
63700;BME280;49845;47.130;142.766;2023-04-24T08:38:19;100038.63;;;8.00;44.42
63700;BME280;49845;47.130;142.766;2023-04-24T08:40:51;100032.59;;;7.95;44.47
63700;BME280;49845;47.130;142.766;2023-04-24T08:43:25;100039.56;;;7.93;44.45
63700;BME280;49845;47.130;142.766;2023-04-24T08:45:57;100042.22;;;7.87;44.47
63700;BME280;49845;47.130;142.766;2023-04-24T08:48:35;100013.75;;;7.68;44.51
63700;BME280;49845;47.130;142.766;2023-04-24T08:51:07;100041.38;;;7.85;44.87
63700;BME280;49845;47.130;142.766;2023-04-24T08:53:40;100032.84;;;7.67;45.66
63700;BME280;49845;47.130;142.766;2023-04-24T08:56:12;100038.13;;;7.58;45.80
63700;BME280;49845;47.130;142.766;2023-04-24T08:58:47;100038.19;;;7.52;46.30
63700;BME280;49845;47.130;142.766;2023-04-24T09:01:20;100041.69;;;7.45;45.98
63700;BME280;49845;47.130;142.766;2023-04-24T09:03:52;100040.03;;;7.34;46.43
63700;BME280;49845;47.130;142.766;2023-04-24T09:06:25;100040.13;;;7.22;46.86
63700;BME280;49845;47.130;142.766;2023-04-24T09:08:58;100045.34;;;7.16;46.42
63700;BME280;49845;47.130;142.766;2023-04-24T09:11:32;100049.75;;;7.05;47.24
63700;BME280;49845;47.130;142.766;2023-04-24T09:14:07;100052.38;;;7.02;47.41
63700;BME280;49845;47.130;142.766;2023-04-24T09:16:40;99976.41;;;6.57;47.54
63700;BME280;49845;47.130;142.766;2023-04-24T09:19:13;100028.22;;;6.78;47.24
63700;BME280;49845;47.130;142.766;2023-04-24T09:21:46;100048.91;;;6.94;48.13
63700;BME280;49845;47.130;142.766;2023-04-24T09:24:19;100050.72;;;6.82;48.44
63700;BME280;49845;47.130;142.766;2023-04-24T09:26:57;100050.75;;;6.79;48.21
63700;BME280;49845;47.130;142.766;2023-04-24T09:29:32;100019.69;;;6.52;48.80
63700;BME280;49845;47.130;142.766;2023-04-24T09:32:18;100049.94;;;6.66;48.90
63700;BME280;49845;47.130;142.766;2023-04-24T09:35:06;100057.72;;;6.65;49.16
63700;BME280;49845;47.130;142.766;2023-04-24T09:37:39;100058.59;;;6.59;49.11
63700;BME280;49845;47.130;142.766;2023-04-24T09:40:14;100059.47;;;6.60;49.73
63700;BME280;49845;47.130;142.766;2023-04-24T09:42:51;100053.34;;;6.73;49.80
63700;BME280;49845;47.130;142.766;2023-04-24T09:45:28;100057.69;;;6.68;49.68
63700;BME280;49845;47.130;142.766;2023-04-24T09:48:00;100061.22;;;6.48;49.66
63700;BME280;49845;47.130;142.766;2023-04-24T09:50:32;100053.47;;;6.29;49.70
63700;BME280;49845;47.130;142.766;2023-04-24T09:53:05;100034.53;;;5.97;50.78
63700;BME280;49845;47.130;142.766;2023-04-24T09:55:42;100050.09;;;5.97;50.66
63700;BME280;49845;47.130;142.766;2023-04-24T09:58:17;100063.03;;;6.03;51.08
63700;BME280;49845;47.130;142.766;2023-04-24T10:00:53;100049.22;;;5.89;51.13
63700;BME280;49845;47.130;142.766;2023-04-24T10:03:26;100025.03;;;5.72;51.18
63700;BME280;49845;47.130;142.766;2023-04-24T10:06:01;100075.16;;;5.95;51.67
63700;BME280;49845;47.130;142.766;2023-04-24T10:08:37;100040.56;;;5.78;51.53
63700;BME280;49845;47.130;142.766;2023-04-24T10:11:09;100069.94;;;5.86;52.13
63700;BME280;49845;47.130;142.766;2023-04-24T10:13:42;100075.16;;;5.77;51.63
63700;BME280;49845;47.130;142.766;2023-04-24T10:16:16;100076.88;;;5.72;51.91
63700;BME280;49845;47.130;142.766;2023-04-24T10:18:48;100075.13;;;5.68;52.20
63700;BME280;49845;47.130;142.766;2023-04-24T10:21:20;100082.03;;;5.66;52.47
63700;BME280;49845;47.130;142.766;2023-04-24T10:23:53;100087.25;;;5.72;52.11
63700;BME280;49845;47.130;142.766;2023-04-24T10:26:25;100090.69;;;5.77;52.10
63700;BME280;49845;47.130;142.766;2023-04-24T10:28:58;100076.00;;;5.62;51.78
63700;BME280;49845;47.130;142.766;2023-04-24T10:31:34;100095.88;;;5.68;51.58
63700;BME280;49845;47.130;142.766;2023-04-24T10:34:06;100098.47;;;5.77;51.85
63700;BME280;49845;47.130;142.766;2023-04-24T10:36:48;100115.75;;;5.81;51.97
63700;BME280;49845;47.130;142.766;2023-04-24T10:39:25;100128.72;;;5.81;51.98
63700;BME280;49845;47.130;142.766;2023-04-24T10:41:58;100131.31;;;5.79;52.46
63700;BME280;49845;47.130;142.766;2023-04-24T10:44:37;100128.69;;;5.66;52.96
63700;BME280;49845;47.130;142.766;2023-04-24T10:47:15;100082.03;;;5.53;52.66
63700;BME280;49845;47.130;142.766;2023-04-24T10:49:46;100118.31;;;5.69;52.92
63700;BME280;49845;47.130;142.766;2023-04-24T10:52:21;100116.59;;;5.61;53.28
63700;BME280;49845;47.130;142.766;2023-04-24T10:54:53;100121.78;;;5.68;53.46
63700;BME280;49845;47.130;142.766;2023-04-24T10:57:27;100099.31;;;5.57;53.62
63700;BME280;49845;47.130;142.766;2023-04-24T11:00:18;100137.34;;;5.74;53.60
63700;BME280;49845;47.130;142.766;2023-04-24T11:02:54;100137.34;;;5.71;53.99
63700;BME280;49845;47.130;142.766;2023-04-24T11:05:50;100129.59;;;5.69;53.52
63700;BME280;49845;47.130;142.766;2023-04-24T11:08:25;100135.63;;;5.79;53.53
63700;BME280;49845;47.130;142.766;2023-04-24T11:10:59;100133.88;;;5.69;53.37
63700;BME280;49845;47.130;142.766;2023-04-24T11:14:02;100123.50;;;5.66;53.95
63700;BME280;49845;47.130;142.766;2023-04-24T11:16:42;100122.66;;;5.57;53.64
63700;BME280;49845;47.130;142.766;2023-04-24T11:19:23;100118.31;;;5.56;53.67
63700;BME280;49845;47.130;142.766;2023-04-24T11:21:57;100094.09;;;5.51;53.70
63700;BME280;49845;47.130;142.766;2023-04-24T11:24:31;100106.22;;;5.49;53.65
63700;BME280;49845;47.130;142.766;2023-04-24T11:27:09;100120.91;;;5.66;54.26
63700;BME280;49845;47.130;142.766;2023-04-24T11:29:44;100121.78;;;5.65;54.13
63700;BME280;49845;47.130;142.766;2023-04-24T11:32:24;100123.50;;;5.53;54.31
63700;BME280;49845;47.130;142.766;2023-04-24T11:34:59;100126.97;;;5.49;54.35
63700;BME280;49845;47.130;142.766;2023-04-24T11:37:35;100109.66;;;5.42;54.64
63700;BME280;49845;47.130;142.766;2023-04-24T11:40:07;100028.41;;;5.00;55.20
63700;BME280;49845;47.130;142.766;2023-04-24T11:42:40;100132.13;;;5.55;55.36
63700;BME280;49845;47.130;142.766;2023-04-24T11:45:13;100127.81;;;5.56;55.04
63700;BME280;49845;47.130;142.766;2023-04-24T11:47:46;100104.47;;;5.42;55.14
63700;BME280;49845;47.130;142.766;2023-04-24T11:50:22;100142.50;;;5.55;55.19
63700;BME280;49845;47.130;142.766;2023-04-24T11:52:54;100139.03;;;5.50;55.47
63700;BME280;49845;47.130;142.766;2023-04-24T11:55:28;100149.41;;;5.53;55.67
63700;BME280;49845;47.130;142.766;2023-04-24T11:58:00;100142.50;;;5.49;55.75
63700;BME280;49845;47.130;142.766;2023-04-24T12:00:32;100145.94;;;5.48;55.94
63700;BME280;49845;47.130;142.766;2023-04-24T12:03:06;100102.69;;;5.23;55.85
63700;BME280;49845;47.130;142.766;2023-04-24T12:05:40;100144.22;;;5.46;56.17
63700;BME280;49845;47.130;142.766;2023-04-24T12:08:27;100073.28;;;5.05;55.80
63700;BME280;49845;47.130;142.766;2023-04-24T12:11:00;100131.22;;;5.38;56.02
63700;BME280;49845;47.130;142.766;2023-04-24T12:13:33;100142.47;;;5.46;56.19
63700;BME280;49845;47.130;142.766;2023-04-24T12:16:05;100121.75;;;5.45;56.06
63700;BME280;49845;47.130;142.766;2023-04-24T12:18:42;100112.28;;;5.47;55.90
63700;BME280;49845;47.130;142.766;2023-04-24T12:21:20;100119.16;;;5.45;56.02
63700;BME280;49845;47.130;142.766;2023-04-24T12:23:54;100119.13;;;5.41;56.09
63700;BME280;49845;47.130;142.766;2023-04-24T12:26:27;100120.88;;;5.38;56.21
63700;BME280;49845;47.130;142.766;2023-04-24T12:29:02;100076.75;;;5.04;56.64
63700;BME280;49845;47.130;142.766;2023-04-24T12:31:35;100113.09;;;5.32;56.57
63700;BME280;49845;47.130;142.766;2023-04-24T12:34:18;100113.94;;;5.31;56.27
63700;BME280;49845;47.130;142.766;2023-04-24T12:36:52;100083.69;;;5.17;56.16
63700;BME280;49845;47.130;142.766;2023-04-24T12:39:23;100068.13;;;5.11;56.25
63700;BME280;49845;47.130;142.766;2023-04-24T12:41:58;100041.28;;;4.86;56.32
63700;BME280;49845;47.130;142.766;2023-04-24T12:44:31;100106.16;;;5.25;56.26
63700;BME280;49845;47.130;142.766;2023-04-24T12:47:03;100097.53;;;5.23;56.79
63700;BME280;49845;47.130;142.766;2023-04-24T12:49:35;100107.88;;;5.23;56.84
63700;BME280;49845;47.130;142.766;2023-04-24T12:52:09;100103.53;;;5.18;56.94
63700;BME280;49845;47.130;142.766;2023-04-24T12:54:40;100107.84;;;5.13;56.65
63700;BME280;49845;47.130;142.766;2023-04-24T12:57:12;100114.72;;;5.08;57.04
63700;BME280;49845;47.130;142.766;2023-04-24T12:59:44;100123.34;;;4.98;57.40
63700;BME280;49845;47.130;142.766;2023-04-24T13:02:15;100130.22;;;4.99;57.34
63700;BME280;49845;47.130;142.766;2023-04-24T13:04:47;100118.16;;;4.95;57.46
63700;BME280;49845;47.130;142.766;2023-04-24T13:07:21;100098.22;;;4.79;57.53